sensor_id;sensor_type;location;lat;lon;timestamp;pressure;altitude;pressure_sealevel;temperature;humidity
57232;BME280;43488;46.934;8.276;2023-03-03T00:01:19;96651.53;;;1.09;83.74
57232;BME280;43488;46.934;8.276;2023-03-03T00:03:46;96649.53;;;1.03;83.82
57232;BME280;43488;46.934;8.276;2023-03-03T00:06:14;96639.16;;;1.03;84.23
57232;BME280;43488;46.934;8.276;2023-03-03T00:08:41;96649.22;;;1.06;84.32
57232;BME280;43488;46.934;8.276;2023-03-03T00:11:09;96643.06;;;1.07;85.03
57232;BME280;43488;46.934;8.276;2023-03-03T00:13:48;96639.81;;;1.05;84.60
57232;BME280;43488;46.934;8.276;2023-03-03T00:16:36;96638.84;;;1.06;84.36
57232;BME280;43488;46.934;8.276;2023-03-03T00:19:14;96644.59;;;1.10;83.84
57232;BME280;43488;46.934;8.276;2023-03-03T00:21:48;96644.19;;;1.05;83.67
57232;BME280;43488;46.934;8.276;2023-03-03T00:24:23;96652.78;;;1.05;83.45
57232;BME280;43488;46.934;8.276;2023-03-03T00:26:53;96654.16;;;1.00;84.57
57232;BME280;43488;46.934;8.276;2023-03-03T00:29:34;96652.13;;;1.03;85.39
57232;BME280;43488;46.934;8.276;2023-03-03T00:34:55;96649.22;;;1.06;84.16
57232;BME280;43488;46.934;8.276;2023-03-03T00:37:33;96647.91;;;1.02;83.99
57232;BME280;43488;46.934;8.276;2023-03-03T00:40:26;96645.66;;;1.07;84.65
57232;BME280;43488;46.934;8.276;2023-03-03T00:42:59;96650.91;;;0.98;84.98
57232;BME280;43488;46.934;8.276;2023-03-03T00:48:27;96650.25;;;0.96;85.41
57232;BME280;43488;46.934;8.276;2023-03-03T00:50:57;96638.69;;;1.08;86.22
57232;BME280;43488;46.934;8.276;2023-03-03T00:53:30;96642.81;;;1.10;85.84
57232;BME280;43488;46.934;8.276;2023-03-03T00:55:57;96638.28;;;1.12;85.78
57232;BME280;43488;46.934;8.276;2023-03-03T00:58:25;96644.34;;;1.03;86.84
57232;BME280;43488;46.934;8.276;2023-03-03T01:00:54;96638.09;;;0.96;87.36
57232;BME280;43488;46.934;8.276;2023-03-03T01:03:25;96651.31;;;1.03;87.81
57232;BME280;43488;46.934;8.276;2023-03-03T01:05:53;96642.66;;;1.12;87.57
57232;BME280;43488;46.934;8.276;2023-03-03T01:08:21;96641.38;;;1.16;87.50
57232;BME280;43488;46.934;8.276;2023-03-03T01:10:52;96642.75;;;1.20;87.49
57232;BME280;43488;46.934;8.276;2023-03-03T01:13:27;96649.13;;;1.26;87.09
57232;BME280;43488;46.934;8.276;2023-03-03T01:15:56;96643.78;;;1.27;86.87
57232;BME280;43488;46.934;8.276;2023-03-03T01:18:24;96637.13;;;1.25;87.08
57232;BME280;43488;46.934;8.276;2023-03-03T01:20:52;96632.59;;;1.27;86.60
57232;BME280;43488;46.934;8.276;2023-03-03T01:23:20;96634.09;;;1.29;86.73
57232;BME280;43488;46.934;8.276;2023-03-03T01:25:47;96631.91;;;1.25;87.11
57232;BME280;43488;46.934;8.276;2023-03-03T01:28:15;96631.63;;;1.28;87.54
57232;BME280;43488;46.934;8.276;2023-03-03T01:30:42;96634.09;;;1.29;87.48
57232;BME280;43488;46.934;8.276;2023-03-03T01:33:09;96624.53;;;1.30;87.80
57232;BME280;43488;46.934;8.276;2023-03-03T01:35:37;96626.53;;;1.36;87.93
57232;BME280;43488;46.934;8.276;2023-03-03T01:38:09;96631.44;;;1.39;87.41
57232;BME280;43488;46.934;8.276;2023-03-03T01:40:36;96621.41;;;1.44;87.81
57232;BME280;43488;46.934;8.276;2023-03-03T01:43:05;96625.63;;;1.45;87.16
57232;BME280;43488;46.934;8.276;2023-03-03T01:48:42;96616.75;;;1.48;87.35
57232;BME280;43488;46.934;8.276;2023-03-03T01:51:30;96624.41;;;1.49;87.48
57232;BME280;43488;46.934;8.276;2023-03-03T01:54:04;96623.72;;;1.47;87.11
57232;BME280;43488;46.934;8.276;2023-03-03T01:56:33;96616.75;;;1.48;87.04
57232;BME280;43488;46.934;8.276;2023-03-03T01:59:06;96621.34;;;1.54;86.75
57232;BME280;43488;46.934;8.276;2023-03-03T02:01:36;96620.53;;;1.53;86.43
57232;BME280;43488;46.934;8.276;2023-03-03T02:04:04;96612.47;;;1.56;86.23
57232;BME280;43488;46.934;8.276;2023-03-03T02:06:44;96607.63;;;1.61;86.56
57232;BME280;43488;46.934;8.276;2023-03-03T02:12:07;96605.94;;;1.52;86.76
57232;BME280;43488;46.934;8.276;2023-03-03T02:14:37;96602.97;;;1.47;87.40
57232;BME280;43488;46.934;8.276;2023-03-03T02:17:05;96605.78;;;1.54;87.56
57232;BME280;43488;46.934;8.276;2023-03-03T02:22:30;96606.50;;;1.64;86.94
57232;BME280;43488;46.934;8.276;2023-03-03T02:25:01;96605.19;;;1.60;86.75
57232;BME280;43488;46.934;8.276;2023-03-03T02:27:31;96605.69;;;1.63;87.06
57232;BME280;43488;46.934;8.276;2023-03-03T02:30:13;96602.66;;;1.68;87.17
57232;BME280;43488;46.934;8.276;2023-03-03T02:32:42;96608.00;;;1.66;86.79
57232;BME280;43488;46.934;8.276;2023-03-03T02:35:31;96606.22;;;1.67;86.74
57232;BME280;43488;46.934;8.276;2023-03-03T02:41:15;96597.78;;;1.65;87.18
57232;BME280;43488;46.934;8.276;2023-03-03T02:44:10;96607.28;;;1.74;86.79
57232;BME280;43488;46.934;8.276;2023-03-03T02:46:42;96604.81;;;1.73;86.85
57232;BME280;43488;46.934;8.276;2023-03-03T02:49:17;96603.41;;;1.78;87.23
57232;BME280;43488;46.934;8.276;2023-03-03T02:51:45;96604.88;;;1.81;87.19
57232;BME280;43488;46.934;8.276;2023-03-03T02:54:15;96596.13;;;1.82;87.23
57232;BME280;43488;46.934;8.276;2023-03-03T02:56:44;96601.31;;;1.82;87.72
57232;BME280;43488;46.934;8.276;2023-03-03T02:59:12;96603.47;;;1.86;87.76
57232;BME280;43488;46.934;8.276;2023-03-03T03:01:41;96607.03;;;1.85;88.00
57232;BME280;43488;46.934;8.276;2023-03-03T03:04:13;96602.00;;;1.84;88.30
57232;BME280;43488;46.934;8.276;2023-03-03T03:06:41;96605.91;;;1.88;88.96
57232;BME280;43488;46.934;8.276;2023-03-03T03:09:11;96609.81;;;1.92;88.73
57232;BME280;43488;46.934;8.276;2023-03-03T03:11:39;96606.94;;;1.95;88.99
57232;BME280;43488;46.934;8.276;2023-03-03T03:14:09;96608.72;;;1.94;88.70
57232;BME280;43488;46.934;8.276;2023-03-03T03:16:37;96616.50;;;1.94;89.04
57232;BME280;43488;46.934;8.276;2023-03-03T03:19:05;96611.47;;;1.93;89.36
57232;BME280;43488;46.934;8.276;2023-03-03T03:21:33;96615.63;;;1.86;89.61
57232;BME280;43488;46.934;8.276;2023-03-03T03:24:01;96619.19;;;1.85;89.81
57232;BME280;43488;46.934;8.276;2023-03-03T03:26:29;96617.78;;;1.73;90.67
57232;BME280;43488;46.934;8.276;2023-03-03T03:28:56;96623.66;;;1.75;91.30
57232;BME280;43488;46.934;8.276;2023-03-03T03:31:24;96626.59;;;1.80;91.14
57232;BME280;43488;46.934;8.276;2023-03-03T03:33:51;96622.28;;;1.88;90.92
57232;BME280;43488;46.934;8.276;2023-03-03T03:36:19;96618.44;;;1.92;90.87
57232;BME280;43488;46.934;8.276;2023-03-03T03:38:46;96621.03;;;1.92;90.81
57232;BME280;43488;46.934;8.276;2023-03-03T03:41:13;96625.41;;;1.92;90.41
57232;BME280;43488;46.934;8.276;2023-03-03T03:43:40;96627.72;;;1.95;90.91
57232;BME280;43488;46.934;8.276;2023-03-03T03:46:08;96626.75;;;1.96;90.46
57232;BME280;43488;46.934;8.276;2023-03-03T03:48:35;96624.16;;;1.96;90.65
57232;BME280;43488;46.934;8.276;2023-03-03T03:51:03;96628.88;;;2.00;90.86
57232;BME280;43488;46.934;8.276;2023-03-03T03:53:30;96623.56;;;2.02;90.56
57232;BME280;43488;46.934;8.276;2023-03-03T03:55:58;96630.22;;;2.05;90.79
57232;BME280;43488;46.934;8.276;2023-03-03T03:58:26;96627.78;;;2.03;90.86
57232;BME280;43488;46.934;8.276;2023-03-03T04:00:53;96631.34;;;2.02;91.30
57232;BME280;43488;46.934;8.276;2023-03-03T04:03:22;96627.63;;;2.05;91.05
57232;BME280;43488;46.934;8.276;2023-03-03T04:05:52;96636.88;;;2.07;90.82
57232;BME280;43488;46.934;8.276;2023-03-03T04:08:20;96630.38;;;2.03;91.54
57232;BME280;43488;46.934;8.276;2023-03-03T04:10:48;96632.16;;;2.03;92.37
57232;BME280;43488;46.934;8.276;2023-03-03T04:13:16;96634.94;;;2.09;92.16
57232;BME280;43488;46.934;8.276;2023-03-03T04:15:43;96630.56;;;2.10;92.17
57232;BME280;43488;46.934;8.276;2023-03-03T04:18:10;96634.94;;;2.09;91.96
57232;BME280;43488;46.934;8.276;2023-03-03T04:20:39;96638.97;;;2.04;92.60
57232;BME280;43488;46.934;8.276;2023-03-03T04:23:06;96636.81;;;1.99;93.25
57232;BME280;43488;46.934;8.276;2023-03-03T04:25:33;96634.06;;;2.00;93.50
57232;BME280;43488;46.934;8.276;2023-03-03T04:28:01;96636.47;;;1.94;93.36
57232;BME280;43488;46.934;8.276;2023-03-03T04:30:28;96639.34;;;1.91;93.27
57232;BME280;43488;46.934;8.276;2023-03-03T04:32:56;96629.78;;;1.91;93.46
57232;BME280;43488;46.934;8.276;2023-03-03T04:35:24;96631.78;;;1.97;93.35
57232;BME280;43488;46.934;8.276;2023-03-03T04:37:52;96640.97;;;1.92;94.23
57232;BME280;43488;46.934;8.276;2023-03-03T04:40:20;96634.69;;;1.94;94.36
57232;BME280;43488;46.934;8.276;2023-03-03T04:42:47;96625.47;;;2.00;94.92
57232;BME280;43488;46.934;8.276;2023-03-03T04:45:14;96630.38;;;2.03;94.46
57232;BME280;43488;46.934;8.276;2023-03-03T04:47:41;96626.50;;;2.07;93.62
57232;BME280;43488;46.934;8.276;2023-03-03T04:50:10;96624.22;;;2.04;93.50
57232;BME280;43488;46.934;8.276;2023-03-03T04:52:37;96625.69;;;2.07;93.37
57232;BME280;43488;46.934;8.276;2023-03-03T04:55:06;96621.97;;;2.09;93.77
57232;BME280;43488;46.934;8.276;2023-03-03T04:57:33;96627.03;;;2.11;93.71
57232;BME280;43488;46.934;8.276;2023-03-03T05:00:06;96612.38;;;2.10;93.06
57232;BME280;43488;46.934;8.276;2023-03-03T05:02:33;96613.50;;;2.07;92.66
57232;BME280;43488;46.934;8.276;2023-03-03T05:05:01;96618.84;;;2.06;92.22
57232;BME280;43488;46.934;8.276;2023-03-03T05:07:28;96618.03;;;2.05;92.18
57232;BME280;43488;46.934;8.276;2023-03-03T05:09:55;96619.31;;;2.01;92.04
57232;BME280;43488;46.934;8.276;2023-03-03T05:12:23;96617.53;;;2.02;91.55
57232;BME280;43488;46.934;8.276;2023-03-03T05:14:51;96619.19;;;2.03;91.28
57232;BME280;43488;46.934;8.276;2023-03-03T05:17:18;96620.63;;;2.05;91.95
57232;BME280;43488;46.934;8.276;2023-03-03T05:19:46;96622.13;;;2.08;91.46
57232;BME280;43488;46.934;8.276;2023-03-03T05:22:13;96624.72;;;2.08;90.79
57232;BME280;43488;46.934;8.276;2023-03-03T05:24:42;96623.25;;;2.05;91.02
57232;BME280;43488;46.934;8.276;2023-03-03T05:27:09;96626.16;;;2.02;91.17
57232;BME280;43488;46.934;8.276;2023-03-03T05:29:38;96619.00;;;2.04;91.09
57232;BME280;43488;46.934;8.276;2023-03-03T05:32:06;96623.91;;;2.07;90.96
57232;BME280;43488;46.934;8.276;2023-03-03T05:34:33;96621.63;;;2.04;91.12
57232;BME280;43488;46.934;8.276;2023-03-03T05:37:00;96622.94;;;2.08;90.94
57232;BME280;43488;46.934;8.276;2023-03-03T05:39:29;96621.63;;;2.04;91.38
57232;BME280;43488;46.934;8.276;2023-03-03T05:41:57;96621.97;;;2.09;91.34
57232;BME280;43488;46.934;8.276;2023-03-03T05:44:26;96617.94;;;2.15;90.92
57232;BME280;43488;46.934;8.276;2023-03-03T05:46:54;96618.09;;;2.13;90.40
57232;BME280;43488;46.934;8.276;2023-03-03T05:49:24;96620.88;;;2.12;90.40
57232;BME280;43488;46.934;8.276;2023-03-03T05:51:52;96631.25;;;2.12;90.32
57232;BME280;43488;46.934;8.276;2023-03-03T05:54:19;96619.22;;;2.11;90.82
57232;BME280;43488;46.934;8.276;2023-03-03T05:56:47;96627.84;;;2.11;90.79
57232;BME280;43488;46.934;8.276;2023-03-03T05:59:14;96626.34;;;2.09;90.75
57232;BME280;43488;46.934;8.276;2023-03-03T06:01:41;96629.47;;;2.12;90.96
57232;BME280;43488;46.934;8.276;2023-03-03T06:04:09;96627.22;;;2.17;91.05
57232;BME280;43488;46.934;8.276;2023-03-03T06:06:36;96624.34;;;2.20;90.79
57232;BME280;43488;46.934;8.276;2023-03-03T06:09:03;96629.53;;;2.20;90.45
57232;BME280;43488;46.934;8.276;2023-03-03T06:11:32;96643.44;;;2.19;91.42
57232;BME280;43488;46.934;8.276;2023-03-03T06:14:00;96644.88;;;2.14;92.88
57232;BME280;43488;46.934;8.276;2023-03-03T06:16:27;96647.13;;;2.09;93.46
57232;BME280;43488;46.934;8.276;2023-03-03T06:18:55;96654.75;;;2.10;93.10
57232;BME280;43488;46.934;8.276;2023-03-03T06:21:22;96655.13;;;2.15;93.25
57232;BME280;43488;46.934;8.276;2023-03-03T06:23:50;96659.72;;;2.21;92.34
57232;BME280;43488;46.934;8.276;2023-03-03T06:26:17;96668.03;;;2.25;92.01
57232;BME280;43488;46.934;8.276;2023-03-03T06:28:44;96670.47;;;2.26;92.62
57232;BME280;43488;46.934;8.276;2023-03-03T06:31:11;96682.13;;;2.22;92.17
57232;BME280;43488;46.934;8.276;2023-03-03T06:33:38;96673.53;;;2.22;91.98
57232;BME280;43488;46.934;8.276;2023-03-03T06:36:06;96674.94;;;2.16;91.90
57232;BME280;43488;46.934;8.276;2023-03-03T06:38:34;96686.88;;;2.27;91.89
57232;BME280;43488;46.934;8.276;2023-03-03T06:41:01;96692.44;;;2.32;91.36
57232;BME280;43488;46.934;8.276;2023-03-03T06:43:34;96699.63;;;2.38;90.46
57232;BME280;43488;46.934;8.276;2023-03-03T06:46:05;96683.50;;;2.35;89.99
57232;BME280;43488;46.934;8.276;2023-03-03T06:48:33;96689.31;;;2.28;90.48
57232;BME280;43488;46.934;8.276;2023-03-03T06:51:22;96697.25;;;2.27;90.65
57232;BME280;43488;46.934;8.276;2023-03-03T06:53:54;96696.44;;;2.26;90.58
57232;BME280;43488;46.934;8.276;2023-03-03T06:56:26;96695.13;;;2.22;90.41
57232;BME280;43488;46.934;8.276;2023-03-03T06:58:59;96700.97;;;2.24;90.23
57232;BME280;43488;46.934;8.276;2023-03-03T07:01:35;96700.81;;;2.26;90.80
57232;BME280;43488;46.934;8.276;2023-03-03T07:04:24;96702.75;;;2.24;90.90
57232;BME280;43488;46.934;8.276;2023-03-03T07:06:56;96711.06;;;2.27;89.72
57232;BME280;43488;46.934;8.276;2023-03-03T07:09:27;96709.16;;;2.12;90.02
57232;BME280;43488;46.934;8.276;2023-03-03T07:12:18;96711.16;;;2.18;90.22
57232;BME280;43488;46.934;8.276;2023-03-03T07:14:52;96715.25;;;2.20;89.78
57232;BME280;43488;46.934;8.276;2023-03-03T07:17:24;96713.31;;;2.22;89.00
57232;BME280;43488;46.934;8.276;2023-03-03T07:19:53;96717.84;;;2.20;89.03
57232;BME280;43488;46.934;8.276;2023-03-03T07:22:24;96717.38;;;2.25;89.06
57232;BME280;43488;46.934;8.276;2023-03-03T07:24:58;96718.72;;;2.29;89.22
57232;BME280;43488;46.934;8.276;2023-03-03T07:27:31;96718.25;;;2.34;88.17
57232;BME280;43488;46.934;8.276;2023-03-03T07:30:25;96725.63;;;2.38;87.95
57232;BME280;43488;46.934;8.276;2023-03-03T07:32:56;96720.41;;;2.38;87.65
57232;BME280;43488;46.934;8.276;2023-03-03T07:35:42;96718.47;;;2.40;87.69
57232;BME280;43488;46.934;8.276;2023-03-03T07:38:41;96722.13;;;2.47;87.22
57232;BME280;43488;46.934;8.276;2023-03-03T07:41:19;96725.81;;;2.45;86.99
57232;BME280;43488;46.934;8.276;2023-03-03T07:44:18;96726.47;;;2.47;86.62
57232;BME280;43488;46.934;8.276;2023-03-03T07:46:48;96733.44;;;2.46;86.88
57232;BME280;43488;46.934;8.276;2023-03-03T07:49:34;96739.47;;;2.47;86.93
57232;BME280;43488;46.934;8.276;2023-03-03T07:52:31;96744.66;;;2.47;87.54
57232;BME280;43488;46.934;8.276;2023-03-03T07:55:29;96741.13;;;2.48;86.74
57232;BME280;43488;46.934;8.276;2023-03-03T08:03:18;96742.94;;;2.55;86.37
57232;BME280;43488;46.934;8.276;2023-03-03T08:05:47;96750.78;;;2.64;87.74
57232;BME280;43488;46.934;8.276;2023-03-03T08:08:34;96745.16;;;2.68;86.68
57232;BME280;43488;46.934;8.276;2023-03-03T08:11:03;96750.84;;;2.72;85.98
57232;BME280;43488;46.934;8.276;2023-03-03T08:13:36;96749.88;;;2.73;85.22
57232;BME280;43488;46.934;8.276;2023-03-03T08:18:43;96750.25;;;2.78;85.06
57232;BME280;43488;46.934;8.276;2023-03-03T08:21:17;96746.69;;;2.79;85.04
57232;BME280;43488;46.934;8.276;2023-03-03T08:23:45;96748.97;;;2.82;84.54
57232;BME280;43488;46.934;8.276;2023-03-03T08:26:12;96747.06;;;2.84;84.21
57232;BME280;43488;46.934;8.276;2023-03-03T08:28:40;96752.75;;;2.88;84.73
57232;BME280;43488;46.934;8.276;2023-03-03T08:31:07;96749.19;;;2.89;84.19
57232;BME280;43488;46.934;8.276;2023-03-03T08:33:34;96758.28;;;2.84;84.40
57232;BME280;43488;46.934;8.276;2023-03-03T08:36:01;96762.34;;;2.87;84.38
57232;BME280;43488;46.934;8.276;2023-03-03T08:38:29;96759.09;;;2.85;83.81
57232;BME280;43488;46.934;8.276;2023-03-03T08:40:56;96760.88;;;2.84;83.81
57232;BME280;43488;46.934;8.276;2023-03-03T08:43:23;96757.47;;;2.84;84.01
57232;BME280;43488;46.934;8.276;2023-03-03T08:45:53;96760.19;;;2.82;84.19
57232;BME280;43488;46.934;8.276;2023-03-03T08:48:20;96771.13;;;2.86;84.34
57232;BME280;43488;46.934;8.276;2023-03-03T08:50:48;96766.41;;;2.90;84.16
57232;BME280;43488;46.934;8.276;2023-03-03T08:53:17;96767.22;;;2.90;84.36
57232;BME280;43488;46.934;8.276;2023-03-03T08:55:45;96770.59;;;2.82;84.49
57232;BME280;43488;46.934;8.276;2023-03-03T08:58:15;96763.47;;;2.84;84.88
57232;BME280;43488;46.934;8.276;2023-03-03T09:00:44;96771.31;;;2.93;84.96
57232;BME280;43488;46.934;8.276;2023-03-03T09:03:12;96763.38;;;2.94;84.49
57232;BME280;43488;46.934;8.276;2023-03-03T09:05:40;96769.56;;;3.01;85.15
57232;BME280;43488;46.934;8.276;2023-03-03T09:08:08;96760.94;;;3.01;85.19
57232;BME280;43488;46.934;8.276;2023-03-03T09:10:36;96765.22;;;3.02;84.56
57232;BME280;43488;46.934;8.276;2023-03-03T09:13:14;96767.66;;;3.03;83.76
57232;BME280;43488;46.934;8.276;2023-03-03T09:15:42;96770.25;;;3.03;84.26
57232;BME280;43488;46.934;8.276;2023-03-03T09:18:19;96760.94;;;3.01;84.43
57232;BME280;43488;46.934;8.276;2023-03-03T09:20:51;96768.91;;;2.99;84.16
57232;BME280;43488;46.934;8.276;2023-03-03T09:23:41;96768.75;;;3.01;84.71
57232;BME280;43488;46.934;8.276;2023-03-03T09:26:30;96761.31;;;3.06;84.74
57232;BME280;43488;46.934;8.276;2023-03-03T09:32:12;96771.50;;;2.99;85.00
57232;BME280;43488;46.934;8.276;2023-03-03T09:34:45;96770.25;;;3.03;84.91
57232;BME280;43488;46.934;8.276;2023-03-03T09:37:33;96770.59;;;3.08;85.05
57232;BME280;43488;46.934;8.276;2023-03-03T09:40:43;96773.19;;;3.08;85.05
57232;BME280;43488;46.934;8.276;2023-03-03T09:51:46;96767.50;;;3.05;84.46
57232;BME280;43488;46.934;8.276;2023-03-03T09:58:00;96768.16;;;3.07;84.80
57232;BME280;43488;46.934;8.276;2023-03-03T10:03:35;96761.31;;;3.06;84.87
57232;BME280;43488;46.934;8.276;2023-03-03T10:06:25;96766.03;;;3.10;84.33
57232;BME280;43488;46.934;8.276;2023-03-03T10:15:45;96781.94;;;3.33;84.07
57232;BME280;43488;46.934;8.276;2023-03-03T10:18:38;96774.84;;;3.43;83.34
57232;BME280;43488;46.934;8.276;2023-03-03T10:35:34;96765.50;;;3.67;81.76
57232;BME280;43488;46.934;8.276;2023-03-03T10:44:31;96768.44;;;3.72;81.56
57232;BME280;43488;46.934;8.276;2023-03-03T10:47:27;96766.34;;;3.76;80.61
57232;BME280;43488;46.934;8.276;2023-03-03T10:53:13;96761.13;;;3.84;81.03
57232;BME280;43488;46.934;8.276;2023-03-03T10:56:21;96759.69;;;3.89;81.26
57232;BME280;43488;46.934;8.276;2023-03-03T11:07:45;96758.94;;;4.13;79.87
57232;BME280;43488;46.934;8.276;2023-03-03T11:10:45;96760.41;;;4.16;79.01
57232;BME280;43488;46.934;8.276;2023-03-03T11:25:18;96746.72;;;4.14;79.54
57232;BME280;43488;46.934;8.276;2023-03-03T11:28:24;96746.56;;;4.15;80.77
57232;BME280;43488;46.934;8.276;2023-03-03T11:34:00;96735.50;;;4.21;80.48
57232;BME280;43488;46.934;8.276;2023-03-03T11:36:50;96746.88;;;4.28;80.14
57232;BME280;43488;46.934;8.276;2023-03-03T11:39:24;96750.47;;;4.19;80.91
57232;BME280;43488;46.934;8.276;2023-03-03T11:45:10;96742.50;;;4.29;79.91
57232;BME280;43488;46.934;8.276;2023-03-03T11:50:56;96726.84;;;4.37;80.21
57232;BME280;43488;46.934;8.276;2023-03-03T11:56:41;96725.06;;;4.38;80.65
57232;BME280;43488;46.934;8.276;2023-03-03T12:05:33;96728.00;;;4.35;81.67
57232;BME280;43488;46.934;8.276;2023-03-03T12:08:51;96723.13;;;4.23;81.30
57232;BME280;43488;46.934;8.276;2023-03-03T12:12:05;96729.97;;;4.33;80.62
57232;BME280;43488;46.934;8.276;2023-03-03T12:15:04;96721.97;;;4.34;81.23
57232;BME280;43488;46.934;8.276;2023-03-03T12:18:00;96726.84;;;4.37;81.22
57232;BME280;43488;46.934;8.276;2023-03-03T12:20:56;96729.16;;;4.40;81.26
57232;BME280;43488;46.934;8.276;2023-03-03T12:26:43;96728.50;;;4.14;81.54
57232;BME280;43488;46.934;8.276;2023-03-03T12:29:41;96723.28;;;4.22;81.00
57232;BME280;43488;46.934;8.276;2023-03-03T12:40:35;96721.94;;;4.10;81.43
57232;BME280;43488;46.934;8.276;2023-03-03T12:48:44;96716.09;;;3.99;82.53
57232;BME280;43488;46.934;8.276;2023-03-03T13:00:47;96713.50;;;4.16;81.88
57232;BME280;43488;46.934;8.276;2023-03-03T13:06:31;96711.72;;;4.24;81.62
57232;BME280;43488;46.934;8.276;2023-03-03T13:26:09;96706.97;;;4.28;79.72
57232;BME280;43488;46.934;8.276;2023-03-03T13:31:59;96700.78;;;4.45;80.83
57232;BME280;43488;46.934;8.276;2023-03-03T13:35:19;96698.69;;;4.49;81.09
57232;BME280;43488;46.934;8.276;2023-03-03T13:37:55;96697.03;;;4.48;79.26
57232;BME280;43488;46.934;8.276;2023-03-03T13:43:25;96692.50;;;4.42;79.86
57232;BME280;43488;46.934;8.276;2023-03-03T13:46:25;96696.91;;;4.41;79.35
57232;BME280;43488;46.934;8.276;2023-03-03T13:49:24;96690.53;;;4.44;78.91
57232;BME280;43488;46.934;8.276;2023-03-03T13:52:05;96692.31;;;4.35;80.58
57232;BME280;43488;46.934;8.276;2023-03-03T13:55:16;96682.72;;;4.44;80.62
57232;BME280;43488;46.934;8.276;2023-03-03T13:58:17;96684.16;;;4.46;80.38
57232;BME280;43488;46.934;8.276;2023-03-03T14:01:03;96680.91;;;4.44;80.76
57232;BME280;43488;46.934;8.276;2023-03-03T14:06:30;96687.09;;;4.60;77.86
57232;BME280;43488;46.934;8.276;2023-03-03T14:14:45;96680.25;;;4.67;76.91
57232;BME280;43488;46.934;8.276;2023-03-03T14:17:40;96677.47;;;4.68;77.58
57232;BME280;43488;46.934;8.276;2023-03-03T14:20:14;96674.50;;;4.71;77.91
57232;BME280;43488;46.934;8.276;2023-03-03T14:23:00;96687.19;;;4.82;80.55
57232;BME280;43488;46.934;8.276;2023-03-03T14:28:42;96686.91;;;4.77;79.55
57232;BME280;43488;46.934;8.276;2023-03-03T14:31:30;96677.94;;;4.80;78.56
57232;BME280;43488;46.934;8.276;2023-03-03T14:34:37;96674.34;;;4.73;80.08
57232;BME280;43488;46.934;8.276;2023-03-03T14:37:26;96676.78;;;4.66;79.21
57232;BME280;43488;46.934;8.276;2023-03-03T14:42:58;96682.19;;;4.65;79.36
57232;BME280;43488;46.934;8.276;2023-03-03T14:45:41;96689.19;;;4.72;79.57
57232;BME280;43488;46.934;8.276;2023-03-03T14:50:47;96686.44;;;4.57;80.87
57232;BME280;43488;46.934;8.276;2023-03-03T14:55:49;96699.63;;;4.56;80.83
57232;BME280;43488;46.934;8.276;2023-03-03T15:03:57;96698.00;;;4.47;80.75
57232;BME280;43488;46.934;8.276;2023-03-03T15:09:39;96698.00;;;4.47;80.81
57232;BME280;43488;46.934;8.276;2023-03-03T15:12:24;96696.22;;;4.47;80.01
57232;BME280;43488;46.934;8.276;2023-03-03T15:15:18;96687.91;;;4.44;80.15
57232;BME280;43488;46.934;8.276;2023-03-03T15:20:42;96696.88;;;4.49;79.91
57232;BME280;43488;46.934;8.276;2023-03-03T15:29:05;96694.28;;;4.49;79.66
57232;BME280;43488;46.934;8.276;2023-03-03T15:31:43;96699.97;;;4.45;79.64
57232;BME280;43488;46.934;8.276;2023-03-03T15:34:38;96708.78;;;4.44;79.44
57232;BME280;43488;46.934;8.276;2023-03-03T15:40:39;96706.81;;;4.38;79.48
57232;BME280;43488;46.934;8.276;2023-03-03T15:43:42;96715.78;;;4.35;79.76
57232;BME280;43488;46.934;8.276;2023-03-03T15:49:47;96711.56;;;4.34;80.39
57232;BME280;43488;46.934;8.276;2023-03-03T15:52:37;96706.00;;;4.37;80.29
57232;BME280;43488;46.934;8.276;2023-03-03T16:03:56;96715.13;;;4.33;81.03
57232;BME280;43488;46.934;8.276;2023-03-03T16:10:09;96712.88;;;4.30;80.95
57232;BME280;43488;46.934;8.276;2023-03-03T16:16:08;96716.59;;;4.27;80.61
57232;BME280;43488;46.934;8.276;2023-03-03T16:27:24;96727.34;;;4.24;81.19
57232;BME280;43488;46.934;8.276;2023-03-03T16:35:26;96723.91;;;4.16;81.31
57232;BME280;43488;46.934;8.276;2023-03-03T16:38:02;96723.59;;;4.19;81.47
57232;BME280;43488;46.934;8.276;2023-03-03T16:40:36;96728.00;;;4.18;81.54
57232;BME280;43488;46.934;8.276;2023-03-03T16:46:40;96738.25;;;4.20;82.24
57232;BME280;43488;46.934;8.276;2023-03-03T16:49:24;96734.34;;;4.16;82.07
57232;BME280;43488;46.934;8.276;2023-03-03T16:52:09;96731.91;;;4.14;82.20
57232;BME280;43488;46.934;8.276;2023-03-03T16:54:49;96746.72;;;4.14;82.67
57232;BME280;43488;46.934;8.276;2023-03-03T17:03:18;96745.41;;;4.10;83.27
57232;BME280;43488;46.934;8.276;2023-03-03T17:09:02;96749.97;;;4.08;83.59
57232;BME280;43488;46.934;8.276;2023-03-03T17:15:22;96753.56;;;4.07;84.08
57232;BME280;43488;46.934;8.276;2023-03-03T17:20:50;96764.31;;;4.12;83.58
57232;BME280;43488;46.934;8.276;2023-03-03T17:27:05;96774.22;;;4.08;83.79
57232;BME280;43488;46.934;8.276;2023-03-03T17:33:37;96789.03;;;4.08;83.69
57232;BME280;43488;46.934;8.276;2023-03-03T17:36:31;96785.47;;;4.09;83.81
57232;BME280;43488;46.934;8.276;2023-03-03T17:39:33;96788.41;;;4.14;83.89
57232;BME280;43488;46.934;8.276;2023-03-03T17:42:32;96794.59;;;4.13;83.36
57232;BME280;43488;46.934;8.276;2023-03-03T17:45:12;96804.50;;;4.09;83.36
57232;BME280;43488;46.934;8.276;2023-03-03T17:53:55;96804.50;;;4.09;82.86
57232;BME280;43488;46.934;8.276;2023-03-03T17:59:54;96815.44;;;4.13;82.73
57232;BME280;43488;46.934;8.276;2023-03-03T18:08:51;96830.59;;;4.17;82.94
57232;BME280;43488;46.934;8.276;2023-03-03T18:14:46;96835.81;;;4.17;82.68
57232;BME280;43488;46.934;8.276;2023-03-03T18:17:53;96834.81;;;4.18;82.38
57232;BME280;43488;46.934;8.276;2023-03-03T18:23:38;96838.75;;;4.14;83.78
57232;BME280;43488;46.934;8.276;2023-03-03T18:32:16;96848.66;;;4.11;84.64
57232;BME280;43488;46.934;8.276;2023-03-03T18:34:45;96850.31;;;4.12;84.40
57232;BME280;43488;46.934;8.276;2023-03-03T18:37:38;96851.41;;;4.09;84.73
57232;BME280;43488;46.934;8.276;2023-03-03T18:42:39;96854.47;;;3.96;86.41
57232;BME280;43488;46.934;8.276;2023-03-03T18:48:07;96854.66;;;4.03;86.03
57232;BME280;43488;46.934;8.276;2023-03-03T18:53:28;96857.94;;;4.05;85.20
57232;BME280;43488;46.934;8.276;2023-03-03T18:56:01;96852.88;;;4.04;85.58